This is the latest recevied weather packets stored in our database for station/object W5HKR. If no packets are shown the sender has not sent any weather packets the latest 10 day(s).
| Time | Temp. | Humidity | Pressure | Rain* | Wind** | Luminosity | Snow |
|---|---|---|---|---|---|---|---|
| 1777706299 | 11.67° C | 88% | 989.2 hPa | 0 mm | - | - | - |
| 1777706000 | 11.67° C | 87% | 989.5 hPa | 0 mm | - | - | - |
| 1777705429 | 11.67° C | 87% | 989.3 hPa | 0 mm | - | - | - |
| 1777705400 | 18.33° C | 91% | 990.6 hPa | 0 mm | - | - | - |
| 1777705098 | 18.33° C | 91% | 990.6 hPa | 0 mm | - | - | - |
| 1777704799 | 11.67° C | 86% | 988.9 hPa | 0 mm | - | - | - |
| 1777704499 | 11.67° C | 86% | 989.2 hPa | 0 mm | - | - | - |
| 1777704349 | 18.33° C | 91% | 990.6 hPa | 0 mm | - | - | - |
| 1777704200 | 11.67° C | 86% | 989.1 hPa | 0 mm | - | - | - |
| 1777703899 | 18.33° C | 91% | 990.6 hPa | 0 mm | - | - | - |
| 1777703599 | 11.67° C | 86% | 989.4 hPa | 0 mm | - | - | - |
| 1777703270 | 18.33° C | 91% | 990.6 hPa | 0 mm | - | - | - |
| 1777702999 | 18.33° C | 91% | 990.6 hPa | 0 mm | - | - | - |
| 1777702699 | 11.67° C | 86% | 989.4 hPa | 0 mm | - | - | - |
| 1777702399 | 12.22° C | 86% | 989.5 hPa | 0 mm | - | - | - |
| 1777702190 | 12.22° C | 86% | 989.2 hPa | 0 mm | - | - | - |
| 1777702098 | 18.33° C | 91% | 990.6 hPa | 0 mm | - | - | - |
| 1777701800 | 18.33° C | 91% | 990.6 hPa | 0 mm | - | - | - |
| 1777701498 | 12.22° C | 85% | 989 hPa | 0 mm | - | - | - |
| 1777701200 | 12.22° C | 85% | 989.8 hPa | 0 mm | - | - | - |
| 1777701109 | 12.22° C | 85% | 989.2 hPa | 0 mm | - | - | - |
| 1777700899 | 18.33° C | 91% | 990.6 hPa | 0 mm | - | - | - |
| 1777700600 | 12.22° C | 84% | 988.9 hPa | 0 mm | - | - | - |
| 1777700299 | 18.33° C | 91% | 990.6 hPa | 0 mm | - | - | - |
| 1777700029 | 18.33° C | 91% | 990.6 hPa | 0 mm | - | - | - |
* Rain latest hour (hover to see other rain measurements)
** Current wind speed in m/s (hover to see current wind gust speed)